Ash Fork, Arizona
Current Conditions -  °F | °C
As of 10:53 AM on Thursday 30 Oct 2014 (Local Time) from KPRC Reporting Station
Clear Clear  
Wind Chill: 20°   Ceiling: Unl
Heat Index: 20°   Visibility: 9mi
Dew Point: -2°   Wind: 5mph
Humidity: 22%   Direction: 50°NE
Pressure: 30.26"   Gusts: NA
Location:  35.23°N, 112.49°W
Report Text: KPRC 301753Z 05004KT 9SM CLR 20/M02 A3026 RMK AO2 SLP189 T02001022 10206 20050 50001
Loading
Personal Weather Stations






























Interactive Weather Map
Tropical Storm Tracking
New forecast layout! Learn more

10-Day Weather Forecast

Advertisements
Track Severe Weather on mobile